Pagina principale
METAR-TAF:

METAR-TAF

Aeroporti :

Grider Field

Pine Bluff, Arkansas, Stati Uniti

latitudine: 34-10-30N, longitudine: 091-56-05W, altezza: 63 m

Osservazione

Il bollettino è stato emesso 47 minuti fa, alle 13:53 UTC
Vento 11 kt da nord/nord-est
Temperature 1°C
Umidità 69%
Pressione 1028 hPa
Visibilità: 16.1 km
Cielo sereno

METAR: KPBF 181353Z AUTO 02011KT 10SM CLR 01/M04 A3035 RMK AO2 SLP279 T00111039

Ora: 08:40 (14:40 UTC)

Previsione

Il bollettino è stato emesso 3 ore e 2 minuti fa, alle 11:38 UTC
Previsione valida dal 18 alle 12 UTC al 19 alle 12 UTC
Vento 8 kt da nord/nord-est
Visibilità: 10 km
Cielo coperto ad un'altezza di 25000 ft
A partire da 18 alle 1800 UTC
Vento 10 kt da nord/nord-est con raffiche fino a 18 kt
Visibilità: 10 km
Cielo coperto ad un'altezza di 25000 ft

TAF: KPBF 181138Z 1812/1912 02008KT P6SM OVC250 FM181800 02010G18KT P6SM OVC250

Osservazioni e previsioni meteorologiche di più di 4000 aeroporti (messaggi METAR e TAF).

Le stazioni disponibili sono rappresentate dai dischi gialli e rossi sulla carta.

Puntare il mouse per vedere il nome della stazione.

Clicca sopra per visualizzare le osservazioni e previsioni meteorologiche.

Per cambiare la mappa : fare clic sui pulsanti verdi con una croce nera per ingrandire, il pulsante verde con un trattino per diminuire, o sulla freccia verde per le mappe adiacenti.


METAR-TAF: